createdAt,value
2019-01-19T00:00:19.318Z,5.77
2019-01-19T00:02:45.789Z,5.17
2019-01-19T00:05:12.347Z,3.57
2019-01-19T00:07:38.843Z,6.17
2019-01-19T00:10:05.307Z,3.30
2019-01-19T00:12:31.782Z,4.40
2019-01-19T00:14:58.241Z,4.57
2019-01-19T00:17:24.774Z,3.53
2019-01-19T00:19:51.272Z,5.00
2019-01-19T00:22:17.759Z,4.50
2019-01-19T00:24:44.250Z,5.93
2019-01-19T00:27:10.713Z,4.00
2019-01-19T00:29:37.273Z,4.03
2019-01-19T00:32:03.770Z,3.37
2019-01-19T00:34:34.168Z,3.40
2019-01-19T00:36:58.369Z,4.07
2019-01-19T00:39:24.867Z,4.90
2019-01-19T00:41:51.411Z,4.67
2019-01-19T00:44:17.904Z,4.10
2019-01-19T00:46:44.391Z,4.83
2019-01-19T00:49:10.855Z,4.07
2019-01-19T00:51:37.342Z,6.00
2019-01-19T00:54:03.881Z,3.43
2019-01-19T00:56:30.347Z,4.47
2019-01-19T00:58:56.836Z,5.77
2019-01-19T01:01:23.331Z,4.03
2019-01-19T01:03:49.816Z,6.07
2019-01-19T01:06:16.327Z,5.10
2019-01-19T01:08:42.786Z,5.30
2019-01-19T01:11:09.287Z,4.90
2019-01-19T01:13:35.839Z,3.73
2019-01-19T01:16:02.294Z,6.53
2019-01-19T01:18:28.782Z,5.40
2019-01-19T01:20:55.288Z,6.37
2019-01-19T01:23:21.771Z,5.60
2019-01-19T01:25:48.328Z,7.43
2019-01-19T01:28:14.785Z,6.20
2019-01-19T01:30:41.284Z,8.77
2019-01-19T01:33:07.770Z,5.57
2019-01-19T01:35:34.306Z,6.30
2019-01-19T01:38:00.765Z,6.07
2019-01-19T01:40:27.266Z,4.53
2019-01-19T01:42:53.727Z,8.67
2019-01-19T01:45:20.193Z,5.67
2019-01-19T01:47:46.707Z,5.53
2019-01-19T01:50:13.198Z,5.13
2019-01-19T01:52:39.687Z,5.37
2019-01-19T01:55:06.175Z,7.37
2019-01-19T01:57:32.724Z,6.70
2019-01-19T01:59:59.220Z,6.67
2019-01-19T02:02:25.803Z,6.80
2019-01-19T02:04:52.303Z,7.20
2019-01-19T02:07:18.799Z,5.77
2019-01-19T02:09:45.337Z,5.03
2019-01-19T02:12:11.823Z,7.23
2019-01-19T02:14:38.314Z,7.10
2019-01-19T02:17:04.777Z,7.00
2019-01-19T02:19:31.246Z,6.87
2019-01-19T02:21:57.734Z,5.00
2019-01-19T02:24:24.198Z,6.43
2019-01-19T02:26:50.687Z,6.97
2019-01-19T02:29:17.145Z,7.67
2019-01-19T02:31:43.617Z,6.90
2019-01-19T02:34:10.075Z,6.63
2019-01-19T02:36:36.541Z,6.87
2019-01-19T02:39:03.013Z,6.90
2019-01-19T02:41:29.469Z,5.63
2019-01-19T02:43:55.964Z,6.33
2019-01-19T02:46:22.430Z,6.97
2019-01-19T02:48:48.919Z,8.07
2019-01-19T02:51:15.377Z,5.63
2019-01-19T02:53:41.875Z,6.27
2019-01-19T02:56:08.368Z,5.97
2019-01-19T02:58:34.824Z,6.37
2019-01-19T03:01:01.296Z,5.73
2019-01-19T03:03:27.789Z,6.63
2019-01-19T03:05:56.312Z,8.53
2019-01-19T03:08:22.390Z,5.97
2019-01-19T03:10:48.850Z,5.07
2019-01-19T03:13:15.325Z,7.00
2019-01-19T03:15:41.822Z,7.17
2019-01-19T03:18:08.295Z,6.50
2019-01-19T03:20:34.759Z,8.23
2019-01-19T03:23:01.226Z,6.50
2019-01-19T03:25:27.723Z,5.13
2019-01-19T03:27:54.211Z,5.13
2019-01-19T03:30:20.798Z,5.20
2019-01-19T03:32:47.272Z,5.70
2019-01-19T03:35:13.759Z,6.03
2019-01-19T03:37:40.231Z,7.17
2019-01-19T03:40:06.709Z,6.37
2019-01-19T03:42:33.157Z,7.30
2019-01-19T03:44:59.656Z,6.77
2019-01-19T03:47:26.112Z,5.70
2019-01-19T03:49:52.579Z,5.57
2019-01-19T03:52:19.079Z,7.57
2019-01-19T03:54:45.570Z,6.23
2019-01-19T03:57:12.065Z,6.03
2019-01-19T03:59:38.551Z,8.63
2019-01-19T04:02:05.010Z,6.20
2019-01-19T04:04:31.615Z,4.83
2019-01-19T04:06:58.074Z,6.30
2019-01-19T04:09:24.602Z,6.53
2019-01-19T04:11:51.098Z,6.50
2019-01-19T04:14:17.595Z,6.47
2019-01-19T04:16:44.116Z,9.27
2019-01-19T04:19:10.575Z,8.03
2019-01-19T04:21:37.100Z,7.27
2019-01-19T04:24:03.563Z,4.43
2019-01-19T04:26:30.083Z,6.30
2019-01-19T04:28:56.577Z,6.50
2019-01-19T04:31:23.064Z,5.43
2019-01-19T04:33:49.612Z,6.00
2019-01-19T04:36:21.454Z,7.10
2019-01-19T04:38:44.215Z,7.00
2019-01-19T04:41:10.726Z,5.60
2019-01-19T04:43:37.215Z,5.87
2019-01-19T04:46:03.683Z,6.40
2019-01-19T04:48:30.223Z,6.70
2019-01-19T04:50:56.719Z,5.20
2019-01-19T04:53:23.203Z,6.40
2019-01-19T04:55:49.756Z,6.80
2019-01-19T04:58:16.242Z,7.43
2019-01-19T05:00:42.706Z,7.23
2019-01-19T05:03:09.256Z,8.27
2019-01-19T05:05:35.718Z,5.40
2019-01-19T05:08:02.178Z,7.60
2019-01-19T05:10:28.704Z,6.83
2019-01-19T05:12:55.198Z,7.40
2019-01-19T05:15:21.683Z,6.33
2019-01-19T05:17:48.209Z,8.03
2019-01-19T05:20:14.697Z,8.20
2019-01-19T05:22:41.242Z,5.53
2019-01-19T05:25:07.732Z,8.47
2019-01-19T05:27:34.190Z,7.93
2019-01-19T05:30:01.096Z,8.73
2019-01-19T05:32:27.568Z,10.30
2019-01-19T05:34:54.054Z,9.50
2019-01-19T05:37:20.582Z,7.47
2019-01-19T05:39:47.075Z,9.23
2019-01-19T05:42:13.538Z,9.43
2019-01-19T05:44:40.058Z,7.63
2019-01-19T05:47:06.547Z,9.23
2019-01-19T05:49:33.036Z,8.33
2019-01-19T05:51:59.876Z,8.07
2019-01-19T05:54:26.334Z,10.67
2019-01-19T05:56:52.829Z,7.73
2019-01-19T05:59:19.353Z,8.70
2019-01-19T06:01:45.810Z,7.47
2019-01-19T06:04:12.313Z,8.43
2019-01-19T06:06:46.386Z,8.03
2019-01-19T06:09:06.964Z,8.53
2019-01-19T06:11:33.459Z,8.10
2019-01-19T06:13:59.919Z,7.77
2019-01-19T06:16:26.474Z,8.33
2019-01-19T06:18:52.931Z,10.07
2019-01-19T06:21:19.398Z,8.40
2019-01-19T06:23:45.913Z,9.70
2019-01-19T06:26:12.410Z,9.93
2019-01-19T06:28:38.865Z,9.00
2019-01-19T06:31:07.056Z,8.70
2019-01-19T06:33:33.465Z,8.37
2019-01-19T06:36:00.008Z,8.83
2019-01-19T06:38:26.507Z,8.60
2019-01-19T06:40:52.966Z,10.57
2019-01-19T06:43:19.512Z,8.73
2019-01-19T06:45:46.008Z,9.63
2019-01-19T06:48:12.491Z,9.03
2019-01-19T06:50:39.006Z,10.23
2019-01-19T06:53:05.511Z,10.23
2019-01-19T06:55:32.003Z,9.70
2019-01-19T06:57:58.515Z,12.53
2019-01-19T07:00:25.030Z,9.10
2019-01-19T07:02:51.502Z,11.50
2019-01-19T07:05:17.993Z,8.30
2019-01-19T07:07:44.518Z,8.27
2019-01-19T07:10:11.015Z,9.03
2019-01-19T07:12:37.474Z,8.53
2019-01-19T07:15:03.991Z,12.97
2019-01-19T07:17:30.497Z,10.50
2019-01-19T07:19:56.961Z,11.10
2019-01-19T07:22:23.426Z,8.90
2019-01-19T07:24:49.946Z,11.13
2019-01-19T07:27:16.409Z,10.53
2019-01-19T07:29:42.911Z,9.73
2019-01-19T07:32:09.478Z,9.63
2019-01-19T07:34:36.006Z,8.30
2019-01-19T07:37:09.546Z,11.40
2019-01-19T07:39:30.639Z,11.43
2019-01-19T07:41:57.102Z,11.13
2019-01-19T07:44:23.634Z,13.00
2019-01-19T07:46:55.950Z,9.50
2019-01-19T07:49:18.206Z,10.80
2019-01-19T07:51:44.707Z,10.07
2019-01-19T07:54:11.195Z,10.50
2019-01-19T07:56:37.718Z,12.53
2019-01-19T07:59:04.203Z,12.37
2019-01-19T08:01:30.695Z,10.50
2019-01-19T08:03:57.251Z,12.00
2019-01-19T08:06:23.720Z,8.83
2019-01-19T08:08:50.188Z,10.63
2019-01-19T08:11:16.675Z,12.73
2019-01-19T08:13:43.201Z,11.63
2019-01-19T08:16:09.691Z,10.33
2019-01-19T08:18:36.179Z,12.47
2019-01-19T08:21:02.684Z,11.30
2019-01-19T08:23:29.185Z,13.80
2019-01-19T08:25:55.694Z,11.07
2019-01-19T08:28:22.195Z,12.13
2019-01-19T08:30:48.684Z,9.17
2019-01-19T08:33:15.182Z,12.43
2019-01-19T08:35:41.671Z,10.77
2019-01-19T08:38:08.236Z,13.43
2019-01-19T08:40:34.726Z,11.67
2019-01-19T08:43:01.321Z,11.20
2019-01-19T08:45:27.758Z,11.57
2019-01-19T08:47:54.310Z,13.33
2019-01-19T08:50:20.803Z,11.87
2019-01-19T08:52:47.295Z,11.23
2019-01-19T08:55:13.786Z,10.37
2019-01-19T08:57:40.275Z,13.27
2019-01-19T09:00:06.787Z,12.07
2019-01-19T09:02:33.251Z,13.10
2019-01-19T09:04:59.763Z,12.30
2019-01-19T09:07:33.519Z,10.90
2019-01-19T09:09:54.390Z,10.73
2019-01-19T09:12:20.947Z,12.43
2019-01-19T09:14:47.430Z,14.47
2019-01-19T09:17:13.893Z,13.30
2019-01-19T09:19:40.363Z,12.23
2019-01-19T09:22:06.822Z,11.67
2019-01-19T09:24:33.382Z,12.40
2019-01-19T09:26:59.890Z,8.83
2019-01-19T09:29:26.326Z,12.10
2019-01-19T09:31:52.831Z,10.90
2019-01-19T09:34:19.327Z,11.73
2019-01-19T09:36:45.864Z,12.10
2019-01-19T09:39:12.371Z,11.50
2019-01-19T09:41:38.855Z,12.33
2019-01-19T09:44:05.322Z,13.87
2019-01-19T09:46:31.786Z,10.30
2019-01-19T09:48:58.334Z,11.10
2019-01-19T09:51:24.830Z,13.20
2019-01-19T09:53:51.298Z,10.57
2019-01-19T09:56:18.635Z,10.67
2019-01-19T09:58:45.262Z,12.60
2019-01-19T10:01:11.828Z,13.13
2019-01-19T10:03:38.300Z,10.37
2019-01-19T10:06:05.507Z,11.27
2019-01-19T10:08:32.268Z,11.67
2019-01-19T10:10:58.740Z,13.13
2019-01-19T10:13:25.254Z,10.30
2019-01-19T10:15:51.748Z,10.23
2019-01-19T10:18:18.229Z,14.57
2019-01-19T10:20:44.731Z,11.60
2019-01-19T10:23:11.223Z,9.20
2019-01-19T10:25:37.681Z,11.77
2019-01-19T10:28:04.222Z,12.93
2019-01-19T10:30:30.696Z,9.97
2019-01-19T10:32:57.164Z,12.10
2019-01-19T10:35:23.671Z,11.93
2019-01-19T10:37:56.215Z,9.50
2019-01-19T10:40:18.278Z,9.77
2019-01-19T10:42:44.774Z,10.93
2019-01-19T10:45:11.282Z,9.63
2019-01-19T10:47:37.741Z,8.33
2019-01-19T10:50:04.240Z,10.07
2019-01-19T10:52:30.731Z,10.70
2019-01-19T10:54:57.289Z,10.60
2019-01-19T10:57:23.747Z,10.90
2019-01-19T10:59:50.248Z,11.50
2019-01-19T11:02:16.728Z,11.23
2019-01-19T11:04:43.234Z,9.27
2019-01-19T11:07:09.812Z,10.77
2019-01-19T11:09:36.279Z,11.97
2019-01-19T11:12:02.749Z,9.77
2019-01-19T11:14:29.210Z,11.10
2019-01-19T11:16:55.699Z,11.87
2019-01-19T11:19:22.253Z,9.60
2019-01-19T11:21:48.710Z,9.57
2019-01-19T11:24:15.177Z,11.33
2019-01-19T11:26:41.724Z,10.87
2019-01-19T11:29:08.191Z,9.43
2019-01-19T11:31:34.650Z,9.70
2019-01-19T11:34:01.142Z,8.53
2019-01-19T11:36:27.630Z,11.00
2019-01-19T11:38:54.359Z,10.50
2019-01-19T11:41:20.824Z,10.67
2019-01-19T11:43:47.277Z,10.20
2019-01-19T11:46:13.783Z,8.03
2019-01-19T11:48:40.282Z,10.83
2019-01-19T11:51:06.810Z,8.67
2019-01-19T11:53:33.307Z,8.63
2019-01-19T11:55:59.793Z,10.43
2019-01-19T11:58:26.294Z,10.70
2019-01-19T12:00:52.787Z,10.33
2019-01-19T12:03:19.762Z,8.73
2019-01-19T12:05:46.235Z,8.67
2019-01-19T12:08:19.404Z,7.00
2019-01-19T12:10:41.887Z,8.03
2019-01-19T12:13:08.393Z,9.13
2019-01-19T12:15:34.939Z,7.77
2019-01-19T12:18:01.401Z,10.77
2019-01-19T12:20:27.876Z,9.30
2019-01-19T12:22:54.375Z,9.17
2019-01-19T12:25:20.859Z,8.23
2019-01-19T12:27:47.432Z,8.87
2019-01-19T12:30:13.937Z,11.97
2019-01-19T12:32:40.571Z,7.17
2019-01-19T12:35:09.244Z,9.83
2019-01-19T12:37:36.067Z,9.20
2019-01-19T12:40:02.581Z,10.37
2019-01-19T12:42:29.039Z,7.70
2019-01-19T12:44:55.569Z,9.00
2019-01-19T12:47:22.089Z,7.47
2019-01-19T12:49:48.610Z,11.17
2019-01-19T12:52:15.079Z,7.20
2019-01-19T12:54:41.574Z,10.47
2019-01-19T12:57:08.127Z,9.77
2019-01-19T12:59:34.619Z,9.27
2019-01-19T13:02:01.080Z,6.20
2019-01-19T13:04:27.576Z,8.00
2019-01-19T13:06:54.078Z,8.63
2019-01-19T13:09:20.596Z,11.03
2019-01-19T13:11:47.083Z,7.27
2019-01-19T13:14:13.582Z,8.37
2019-01-19T13:16:40.038Z,6.50
2019-01-19T13:19:06.601Z,7.60
2019-01-19T13:21:33.190Z,6.50
2019-01-19T13:23:59.683Z,8.57
2019-01-19T13:26:26.176Z,7.30
2019-01-19T13:28:52.665Z,6.93
2019-01-19T13:31:19.244Z,7.17
2019-01-19T13:33:45.675Z,6.63
2019-01-19T13:36:12.164Z,7.57
2019-01-19T13:38:42.002Z,7.90
2019-01-19T13:41:06.750Z,6.87
2019-01-19T13:43:33.283Z,7.30
2019-01-19T13:45:59.766Z,6.87
2019-01-19T13:48:26.264Z,8.20
2019-01-19T13:50:52.754Z,5.93
2019-01-19T13:53:19.274Z,6.90
2019-01-19T13:55:45.738Z,8.27
2019-01-19T13:58:12.203Z,8.23
2019-01-19T14:00:38.721Z,7.00
2019-01-19T14:03:05.212Z,6.20
2019-01-19T14:05:31.686Z,8.10
2019-01-19T14:07:58.161Z,8.67
2019-01-19T14:10:24.665Z,6.40
2019-01-19T14:12:51.185Z,7.27
2019-01-19T14:15:17.675Z,7.03
2019-01-19T14:17:44.137Z,6.07
2019-01-19T14:20:10.618Z,8.20
2019-01-19T14:22:37.124Z,8.00
2019-01-19T14:25:03.679Z,5.70
2019-01-19T14:27:30.138Z,7.43
2019-01-19T14:29:56.638Z,7.47
2019-01-19T14:32:23.124Z,8.57
2019-01-19T14:34:49.594Z,9.93
2019-01-19T14:37:16.139Z,7.87
2019-01-19T14:39:42.598Z,6.53
2019-01-19T14:42:09.094Z,9.10
2019-01-19T14:44:35.584Z,7.20
2019-01-19T14:47:02.074Z,6.20
2019-01-19T14:49:28.616Z,6.63
2019-01-19T14:51:55.074Z,5.37
2019-01-19T14:54:23.209Z,8.67
2019-01-19T14:56:49.868Z,9.13
2019-01-19T14:59:16.358Z,6.97
2019-01-19T15:01:42.879Z,6.93
2019-01-19T15:04:09.338Z,8.37
2019-01-19T15:06:35.816Z,7.77
2019-01-19T15:09:03.966Z,7.97
2019-01-19T15:11:30.595Z,7.00
2019-01-19T15:13:57.195Z,8.30
2019-01-19T15:16:23.650Z,5.60
2019-01-19T15:18:50.118Z,7.23
2019-01-19T15:21:16.599Z,7.33
2019-01-19T15:23:43.101Z,8.20
2019-01-19T15:26:09.635Z,6.53
2019-01-19T15:28:36.124Z,9.03
2019-01-19T15:31:03.014Z,7.87
2019-01-19T15:33:29.482Z,5.87
2019-01-19T15:35:55.938Z,6.60
2019-01-19T15:38:22.410Z,10.87
2019-01-19T15:40:48.902Z,7.73
2019-01-19T15:43:15.419Z,6.93
2019-01-19T15:45:41.913Z,10.23
2019-01-19T15:48:08.377Z,6.63
2019-01-19T15:50:34.883Z,7.53
2019-01-19T15:53:01.353Z,8.93
2019-01-19T15:55:27.862Z,9.67
2019-01-19T15:57:54.322Z,8.53
2019-01-19T16:00:20.858Z,7.83
2019-01-19T16:02:47.314Z,9.63
2019-01-19T16:05:13.774Z,7.73
2019-01-19T16:07:40.246Z,9.20
2019-01-19T16:10:06.842Z,9.23
2019-01-19T16:12:33.399Z,8.47
2019-01-19T16:14:59.862Z,8.93
2019-01-19T16:17:26.352Z,9.33
2019-01-19T16:19:53.389Z,6.17
2019-01-19T16:22:19.903Z,8.57
2019-01-19T16:24:46.443Z,7.37
2019-01-19T16:27:12.945Z,9.10
2019-01-19T16:29:39.435Z,8.57
2019-01-19T16:32:08.147Z,7.30
2019-01-19T16:34:34.054Z,7.47
2019-01-19T16:37:00.585Z,8.33
2019-01-19T16:39:27.080Z,9.20
2019-01-19T16:41:53.559Z,8.87
2019-01-19T16:44:20.056Z,9.90
2019-01-19T16:46:46.550Z,10.63
2019-01-19T16:49:13.127Z,9.30
2019-01-19T16:51:39.624Z,10.77
2019-01-19T16:54:06.111Z,10.30
2019-01-19T16:56:32.604Z,10.87
2019-01-19T16:58:59.099Z,10.43
2019-01-19T17:01:25.614Z,10.93
2019-01-19T17:03:52.112Z,10.40
2019-01-19T17:06:18.595Z,9.60
2019-01-19T17:08:45.092Z,9.53
2019-01-19T17:11:11.575Z,9.43
2019-01-19T17:13:38.132Z,10.87
2019-01-19T17:16:04.735Z,8.73
2019-01-19T17:18:31.201Z,9.83
2019-01-19T17:20:57.698Z,9.90
2019-01-19T17:23:24.155Z,13.13
2019-01-19T17:25:50.706Z,12.30
2019-01-19T17:28:17.204Z,9.80
2019-01-19T17:30:43.695Z,11.70
2019-01-19T17:33:10.191Z,11.37
2019-01-19T17:35:37.225Z,10.73
2019-01-19T17:38:03.909Z,15.87
2019-01-19T17:40:30.410Z,11.37
2019-01-19T17:42:56.873Z,12.70
2019-01-19T17:45:23.374Z,12.70
2019-01-19T17:47:49.867Z,11.37
2019-01-19T17:50:16.414Z,14.10
2019-01-19T17:52:42.903Z,14.17
2019-01-19T17:55:09.358Z,13.67
2019-01-19T17:57:35.859Z,12.20
2019-01-19T18:00:02.319Z,15.83
2019-01-19T18:02:28.876Z,13.63
2019-01-19T18:04:55.360Z,12.33
2019-01-19T18:07:21.851Z,17.37
2019-01-19T18:09:48.339Z,16.47
2019-01-19T18:12:14.826Z,16.30
2019-01-19T18:14:41.918Z,18.13
2019-01-19T18:17:08.385Z,17.40
2019-01-19T18:19:34.978Z,14.67
2019-01-19T18:22:01.523Z,20.43
2019-01-19T18:24:28.009Z,18.23
2019-01-19T18:26:54.582Z,16.70
2019-01-19T18:29:21.034Z,19.30
2019-01-19T18:31:47.544Z,17.93
2019-01-19T18:34:14.004Z,21.13
2019-01-19T18:36:40.503Z,21.23
2019-01-19T18:39:07.045Z,22.10
2019-01-19T18:41:33.506Z,23.40
2019-01-19T18:44:00.013Z,21.23
2019-01-19T18:46:26.514Z,24.00
2019-01-19T18:48:53.075Z,26.37
2019-01-19T18:51:19.625Z,22.63
2019-01-19T18:53:46.111Z,24.17
2019-01-19T18:56:12.570Z,22.87
2019-01-19T18:58:39.110Z,26.43
2019-01-19T19:01:06.177Z,27.40
2019-01-19T19:03:32.788Z,26.20
2019-01-19T19:05:59.258Z,27.03
2019-01-19T19:08:25.759Z,25.13
2019-01-19T19:10:52.250Z,27.73
2019-01-19T19:13:18.718Z,26.00
2019-01-19T19:15:45.285Z,29.87
2019-01-19T19:18:12.212Z,27.47
2019-01-19T19:20:38.674Z,30.10
2019-01-19T19:23:05.187Z,30.10
2019-01-19T19:25:31.730Z,32.10
2019-01-19T19:27:58.299Z,31.07
2019-01-19T19:30:24.838Z,28.77
2019-01-19T19:32:51.280Z,30.77
2019-01-19T19:35:17.774Z,31.73
2019-01-19T19:37:44.238Z,31.93
2019-01-19T19:40:10.785Z,27.70
2019-01-19T19:42:37.253Z,33.07
2019-01-19T19:45:03.750Z,32.33
2019-01-19T19:47:30.250Z,36.20
2019-01-19T19:49:56.710Z,30.00
2019-01-19T19:52:27.893Z,31.33
2019-01-19T19:54:51.386Z,33.97
2019-01-19T19:57:17.878Z,37.80
2019-01-19T19:59:44.383Z,32.50
2019-01-19T20:02:11.002Z,36.30
2019-01-19T20:04:37.547Z,33.90
2019-01-19T20:07:04.046Z,31.93
2019-01-19T20:09:30.538Z,35.07
2019-01-19T20:11:57.017Z,33.63
2019-01-19T20:14:23.481Z,39.70
2019-01-19T20:16:50.423Z,38.13
2019-01-19T20:19:16.923Z,36.07
2019-01-19T20:21:43.429Z,33.70
2019-01-19T20:24:09.907Z,38.77
2019-01-19T20:26:36.400Z,36.77
2019-01-19T20:29:02.884Z,41.10
2019-01-19T20:31:29.346Z,33.20
2019-01-19T20:33:55.851Z,34.53
2019-01-19T20:36:22.340Z,36.90
2019-01-19T20:38:48.887Z,38.60
2019-01-19T20:41:15.370Z,37.00
2019-01-19T20:43:41.831Z,38.90
2019-01-19T20:46:08.327Z,40.67
2019-01-19T20:48:34.820Z,37.10
2019-01-19T20:51:01.342Z,39.73
2019-01-19T20:53:27.879Z,38.10
2019-01-19T20:55:54.350Z,41.40
2019-01-19T20:58:20.850Z,37.40
2019-01-19T21:00:47.343Z,40.57
2019-01-19T21:03:13.874Z,42.53
2019-01-19T21:05:40.367Z,42.27
2019-01-19T21:08:06.827Z,42.17
2019-01-19T21:10:33.327Z,40.83
2019-01-19T21:12:59.826Z,41.03
2019-01-19T21:15:26.358Z,38.17
2019-01-19T21:17:55.853Z,39.10
2019-01-19T21:20:21.053Z,41.93
2019-01-19T21:22:47.551Z,41.17
2019-01-19T21:25:14.042Z,42.27
2019-01-19T21:27:40.589Z,41.90
2019-01-19T21:30:07.078Z,43.53
2019-01-19T21:32:33.708Z,46.00
2019-01-19T21:35:00.246Z,37.07
2019-01-19T21:37:26.830Z,43.47
2019-01-19T21:39:53.322Z,42.60
2019-01-19T21:42:19.782Z,40.80
2019-01-19T21:44:46.358Z,46.87
2019-01-19T21:47:12.816Z,38.50
2019-01-19T21:49:39.319Z,44.80
2019-01-19T21:52:05.832Z,45.20
2019-01-19T21:54:32.286Z,43.17
2019-01-19T21:56:59.018Z,44.73
2019-01-19T21:59:25.540Z,42.40
2019-01-19T22:01:52.070Z,44.13
2019-01-19T22:04:18.506Z,42.60
2019-01-19T22:06:44.983Z,39.37
2019-01-19T22:09:11.526Z,45.37
2019-01-19T22:11:38.024Z,46.10
2019-01-19T22:14:04.522Z,45.83
2019-01-19T22:16:31.028Z,43.10
2019-01-19T22:18:57.489Z,38.07
2019-01-19T22:21:24.050Z,44.53
2019-01-19T22:23:50.546Z,45.23
2019-01-19T22:26:17.027Z,45.23
2019-01-19T22:28:43.505Z,50.83
2019-01-19T22:31:09.978Z,44.93
2019-01-19T22:33:36.549Z,44.23
2019-01-19T22:36:03.011Z,48.53
2019-01-19T22:38:29.478Z,42.73
2019-01-19T22:40:55.956Z,43.83
2019-01-19T22:43:22.960Z,44.97
2019-01-19T22:45:49.514Z,42.63
2019-01-19T22:48:15.994Z,40.63
2019-01-19T22:50:42.504Z,45.03
2019-01-19T22:53:08.989Z,44.67
2019-01-19T22:55:35.522Z,45.37
2019-01-19T22:58:02.107Z,48.13
2019-01-19T23:00:28.598Z,43.20
2019-01-19T23:02:55.090Z,46.23
2019-01-19T23:05:21.615Z,43.53
2019-01-19T23:07:48.084Z,46.20
2019-01-19T23:10:14.748Z,45.93
2019-01-19T23:12:41.210Z,49.07
2019-01-19T23:15:07.766Z,52.40
2019-01-19T23:17:34.231Z,45.43
2019-01-19T23:20:00.725Z,42.07
2019-01-19T23:22:27.234Z,47.27
2019-01-19T23:24:53.739Z,47.33
2019-01-19T23:27:20.226Z,45.40
2019-01-19T23:29:46.722Z,49.53
2019-01-19T23:32:13.181Z,47.10
2019-01-19T23:34:39.710Z,43.60
2019-01-19T23:37:06.207Z,50.47
2019-01-19T23:39:32.662Z,48.00
2019-01-19T23:41:59.170Z,49.43
2019-01-19T23:44:25.621Z,50.57
2019-01-19T23:46:52.179Z,45.73
2019-01-19T23:49:18.646Z,49.83
2019-01-19T23:51:45.113Z,47.10
2019-01-19T23:54:11.592Z,49.07
2019-01-19T23:56:38.084Z,45.03
2019-01-19T23:59:04.601Z,54.07
